createdAt,value
2018-08-13T00:00:03.616Z,16.45
2018-08-13T00:01:03.539Z,16.52
2018-08-13T00:02:03.464Z,16.60
2018-08-13T00:03:03.392Z,16.59
2018-08-13T00:04:03.322Z,16.59
2018-08-13T00:05:03.244Z,16.63
2018-08-13T00:06:03.181Z,16.56
2018-08-13T00:07:03.094Z,16.52
2018-08-13T00:08:03.019Z,16.59
2018-08-13T00:09:02.946Z,16.70
2018-08-13T00:10:02.873Z,16.75
2018-08-13T00:11:02.796Z,16.74
2018-08-13T00:12:02.722Z,16.80
2018-08-13T00:13:02.650Z,16.88
2018-08-13T00:14:02.575Z,16.84
2018-08-13T00:15:02.501Z,16.84
2018-08-13T00:16:02.426Z,16.89
2018-08-13T00:17:02.353Z,16.85
2018-08-13T00:18:02.279Z,16.85
2018-08-13T00:19:02.204Z,16.82
2018-08-13T00:20:02.131Z,16.77
2018-08-13T00:21:02.056Z,16.65
2018-08-13T00:22:01.984Z,16.71
2018-08-13T00:23:01.907Z,16.65
2018-08-13T00:24:01.835Z,16.63
2018-08-13T00:25:01.760Z,16.66
2018-08-13T00:26:01.687Z,16.60
2018-08-13T00:27:01.611Z,16.62
2018-08-13T00:28:01.537Z,16.62
2018-08-13T00:29:01.463Z,16.67
2018-08-13T00:30:01.390Z,16.67
2018-08-13T00:31:01.317Z,16.67
2018-08-13T00:32:01.241Z,16.65
2018-08-13T00:33:01.167Z,16.62
2018-08-13T00:34:01.093Z,16.65
2018-08-13T00:35:01.019Z,16.57
2018-08-13T00:36:00.945Z,16.57
2018-08-13T00:37:00.872Z,16.65
2018-08-13T00:38:00.796Z,16.71
2018-08-13T00:39:00.724Z,16.74
2018-08-13T00:40:00.648Z,16.57
2018-08-13T00:41:00.575Z,16.59
2018-08-13T00:42:00.499Z,16.65
2018-08-13T00:43:00.424Z,16.57
2018-08-13T00:44:00.351Z,16.45
2018-08-13T00:45:00.277Z,16.30
2018-08-13T00:46:00.202Z,16.35
2018-08-13T00:47:00.129Z,16.33
2018-08-13T00:48:00.055Z,16.34
2018-08-13T00:48:59.980Z,16.29
2018-08-13T00:49:59.908Z,16.27
2018-08-13T00:50:59.832Z,16.33
2018-08-13T00:51:59.757Z,16.33
2018-08-13T00:52:59.683Z,16.47
2018-08-13T00:53:59.613Z,16.47
2018-08-13T00:54:59.535Z,16.50
2018-08-13T00:55:59.460Z,16.57
2018-08-13T00:56:59.387Z,16.59
2018-08-13T00:57:59.312Z,16.65
2018-08-13T00:58:59.237Z,16.57
2018-08-13T00:59:59.162Z,16.59
2018-08-13T01:00:59.089Z,16.59
2018-08-13T01:01:59.016Z,16.52
2018-08-13T01:02:58.940Z,16.53
2018-08-13T01:03:58.867Z,16.52
2018-08-13T01:04:58.792Z,16.52
2018-08-13T01:05:58.719Z,16.59
2018-08-13T01:06:58.646Z,16.59
2018-08-13T01:07:58.570Z,16.52
2018-08-13T01:08:58.495Z,16.60
2018-08-13T01:09:58.421Z,16.50
2018-08-13T01:10:58.349Z,16.60
2018-08-13T01:11:58.273Z,16.65
2018-08-13T01:12:58.211Z,16.67
2018-08-13T01:13:58.124Z,16.73
2018-08-13T01:14:58.050Z,16.78
2018-08-13T01:15:57.976Z,16.80
2018-08-13T01:16:57.903Z,16.73
2018-08-13T01:17:57.828Z,16.63
2018-08-13T01:18:57.761Z,16.55
2018-08-13T01:19:57.679Z,16.48
2018-08-13T01:20:57.605Z,16.42
2018-08-13T01:21:57.536Z,16.53
2018-08-13T01:22:57.456Z,16.57
2018-08-13T01:23:57.383Z,16.53
2018-08-13T01:24:57.309Z,16.59
2018-08-13T01:25:57.236Z,16.56
2018-08-13T01:26:57.211Z,16.55
2018-08-13T01:27:57.086Z,16.48
2018-08-13T01:28:57.012Z,16.57
2018-08-13T01:29:56.939Z,16.57
2018-08-13T01:30:56.864Z,16.53
2018-08-13T01:31:56.790Z,16.65
2018-08-13T01:32:56.716Z,16.60
2018-08-13T01:33:56.642Z,16.65
2018-08-13T01:34:56.567Z,16.63
2018-08-13T01:35:56.494Z,16.57
2018-08-13T01:36:56.420Z,16.52
2018-08-13T01:37:56.348Z,16.41
2018-08-13T01:38:56.271Z,16.30
2018-08-13T01:39:56.196Z,16.40
2018-08-13T01:40:56.123Z,16.30
2018-08-13T01:41:56.050Z,16.34
2018-08-13T01:42:55.973Z,16.30
2018-08-13T01:43:55.900Z,16.33
2018-08-13T01:44:55.828Z,16.34
2018-08-13T01:45:55.753Z,16.35
2018-08-13T01:46:55.678Z,16.27
2018-08-13T01:47:55.604Z,16.34
2018-08-13T01:48:55.531Z,16.35
2018-08-13T01:49:55.455Z,16.27
2018-08-13T01:50:55.380Z,16.22
2018-08-13T01:51:55.306Z,16.22
2018-08-13T01:52:55.234Z,16.16
2018-08-13T01:53:55.159Z,16.16
2018-08-13T01:54:55.084Z,16.14
2018-08-13T01:55:55.010Z,16.10
2018-08-13T01:56:54.935Z,16.08
2018-08-13T01:57:54.860Z,16.04
2018-08-13T01:58:54.787Z,16.04
2018-08-13T01:59:54.712Z,16.06
2018-08-13T02:00:54.640Z,15.94
2018-08-13T02:01:54.568Z,15.99
2018-08-13T02:02:54.488Z,15.94
2018-08-13T02:03:54.414Z,15.96
2018-08-13T02:04:54.340Z,15.97
2018-08-13T02:05:54.265Z,15.86
2018-08-13T02:06:54.191Z,15.94
2018-08-13T02:07:54.117Z,15.97
2018-08-13T02:08:54.042Z,16.03
2018-08-13T02:09:53.968Z,16.12
2018-08-13T02:10:53.893Z,16.03
2018-08-13T02:11:53.819Z,16.04
2018-08-13T02:12:53.745Z,15.94
2018-08-13T02:13:53.670Z,15.94
2018-08-13T02:14:53.596Z,16.03
2018-08-13T02:15:53.523Z,16.06
2018-08-13T02:16:53.446Z,16.04
2018-08-13T02:17:53.372Z,16.08
2018-08-13T02:18:53.297Z,16.00
2018-08-13T02:19:53.223Z,16.03
2018-08-13T02:20:53.150Z,16.00
2018-08-13T02:21:53.077Z,16.07
2018-08-13T02:22:53.001Z,16.16
2018-08-13T02:23:52.924Z,16.08
2018-08-13T02:24:52.849Z,16.03
2018-08-13T02:25:52.776Z,16.08
2018-08-13T02:26:52.699Z,16.04
2018-08-13T02:27:52.626Z,15.96
2018-08-13T02:28:52.551Z,15.92
2018-08-13T02:29:52.478Z,16.03
2018-08-13T02:30:52.403Z,16.08
2018-08-13T02:31:52.327Z,16.07
2018-08-13T02:32:52.254Z,16.03
2018-08-13T02:33:52.184Z,16.07
2018-08-13T02:34:52.106Z,16.15
2018-08-13T02:35:52.032Z,16.26
2018-08-13T02:36:51.958Z,16.16
2018-08-13T02:37:51.881Z,16.26
2018-08-13T02:38:51.807Z,16.30
2018-08-13T02:39:51.734Z,16.30
2018-08-13T02:40:51.666Z,16.34
2018-08-13T02:41:51.583Z,16.29
2018-08-13T02:42:51.508Z,16.33
2018-08-13T02:43:51.436Z,16.23
2018-08-13T02:44:51.359Z,16.27
2018-08-13T02:45:51.285Z,16.22
2018-08-13T02:46:51.210Z,16.23
2018-08-13T02:47:51.140Z,16.22
2018-08-13T02:48:51.063Z,16.18
2018-08-13T02:49:50.988Z,16.10
2018-08-13T02:50:50.912Z,16.10
2018-08-13T02:51:50.843Z,16.12
2018-08-13T02:52:50.764Z,16.23
2018-08-13T02:53:50.689Z,16.25
2018-08-13T02:54:50.615Z,16.34
2018-08-13T02:55:50.541Z,16.35
2018-08-13T02:56:50.471Z,16.40
2018-08-13T02:57:50.392Z,16.44
2018-08-13T02:58:50.318Z,16.45
2018-08-13T02:59:50.242Z,16.42
2018-08-13T03:00:50.169Z,16.35
2018-08-13T03:01:50.100Z,16.33
2018-08-13T03:02:50.019Z,16.34
2018-08-13T03:03:49.945Z,16.27
2018-08-13T03:04:50.029Z,16.33
2018-08-13T03:05:49.799Z,16.30
2018-08-13T03:06:49.721Z,16.23
2018-08-13T03:07:49.648Z,16.18
2018-08-13T03:08:49.574Z,16.08
2018-08-13T03:09:49.507Z,16.01
2018-08-13T03:10:49.424Z,15.99
2018-08-13T03:11:49.349Z,16.04
2018-08-13T03:12:49.276Z,16.04
2018-08-13T03:13:49.202Z,16.03
2018-08-13T03:14:49.126Z,16.04
2018-08-13T03:15:49.052Z,16.23
2018-08-13T03:16:48.978Z,16.35
2018-08-13T03:17:48.904Z,16.38
2018-08-13T03:18:48.830Z,16.29
2018-08-13T03:19:48.755Z,16.44
2018-08-13T03:20:48.680Z,16.40
2018-08-13T03:21:48.610Z,16.33
2018-08-13T03:22:48.531Z,16.35
2018-08-13T03:23:48.457Z,16.33
2018-08-13T03:24:48.383Z,16.29
2018-08-13T03:25:48.331Z,16.23
2018-08-13T03:26:48.235Z,16.29
2018-08-13T03:27:48.158Z,16.33
2018-08-13T03:28:48.085Z,16.27
2018-08-13T03:29:48.012Z,16.33
2018-08-13T03:30:47.935Z,16.41
2018-08-13T03:31:47.870Z,16.60
2018-08-13T03:32:47.789Z,16.85
2018-08-13T03:33:47.714Z,16.98
2018-08-13T03:34:47.638Z,17.14
2018-08-13T03:35:47.564Z,17.17
2018-08-13T03:36:47.491Z,17.08
2018-08-13T03:37:47.422Z,17.02
2018-08-13T03:38:47.341Z,16.93
2018-08-13T03:39:47.267Z,16.90
2018-08-13T03:40:47.194Z,16.81
2018-08-13T03:41:47.120Z,16.77
2018-08-13T03:42:47.046Z,16.66
2018-08-13T03:43:46.972Z,16.74
2018-08-13T03:44:46.897Z,16.77
2018-08-13T03:45:46.824Z,16.75
2018-08-13T03:46:46.749Z,16.65
2018-08-13T03:47:46.682Z,16.57
2018-08-13T03:48:46.601Z,16.63
2018-08-13T03:49:46.528Z,16.56
2018-08-13T03:50:46.453Z,16.60
2018-08-13T03:51:46.378Z,16.42
2018-08-13T03:52:46.303Z,16.42
2018-08-13T03:53:46.279Z,16.34
2018-08-13T03:54:46.156Z,16.34
2018-08-13T03:55:46.114Z,16.27
2018-08-13T03:56:46.011Z,16.34
2018-08-13T03:57:45.934Z,16.29
2018-08-13T03:58:45.859Z,16.23
2018-08-13T03:59:45.785Z,16.35
2018-08-13T04:00:45.711Z,16.27
2018-08-13T04:01:45.637Z,16.22
2018-08-13T04:02:45.564Z,16.25
2018-08-13T04:03:45.488Z,16.25
2018-08-13T04:04:45.413Z,16.15
2018-08-13T04:05:45.339Z,16.27
2018-08-13T04:06:45.265Z,16.44
2018-08-13T04:07:45.189Z,16.60
2018-08-13T04:08:45.119Z,16.63
2018-08-13T04:09:45.043Z,16.65
2018-08-13T04:10:44.967Z,16.80
2018-08-13T04:11:44.893Z,16.81
2018-08-13T04:12:44.875Z,16.98
2018-08-13T04:13:44.746Z,16.96
2018-08-13T04:14:44.671Z,17.13
2018-08-13T04:15:44.597Z,17.13
2018-08-13T04:16:44.522Z,17.13
2018-08-13T04:17:44.448Z,17.15
2018-08-13T04:18:44.375Z,17.21
2018-08-13T04:19:44.301Z,17.21
2018-08-13T04:20:44.228Z,17.32
2018-08-13T04:21:44.153Z,17.32
2018-08-13T04:22:44.080Z,17.33
2018-08-13T04:23:44.005Z,17.40
2018-08-13T04:24:43.932Z,17.39
2018-08-13T04:25:43.859Z,17.40
2018-08-13T04:26:43.785Z,17.38
2018-08-13T04:27:43.710Z,17.32
2018-08-13T04:28:43.638Z,17.35
2018-08-13T04:29:43.564Z,17.26
2018-08-13T04:30:43.490Z,17.35
2018-08-13T04:31:43.416Z,17.33
2018-08-13T04:32:43.425Z,17.33
2018-08-13T04:33:43.270Z,17.38
2018-08-13T04:34:43.196Z,17.39
2018-08-13T04:35:43.121Z,17.53
2018-08-13T04:36:43.049Z,17.48
2018-08-13T04:37:42.976Z,17.58
2018-08-13T04:38:42.934Z,17.70
2018-08-13T04:39:42.834Z,17.73
2018-08-13T04:40:42.758Z,17.66
2018-08-13T04:41:42.682Z,17.73
2018-08-13T04:42:42.607Z,17.74
2018-08-13T04:43:42.533Z,17.77
2018-08-13T04:44:42.461Z,17.70
2018-08-13T04:45:42.388Z,17.79
2018-08-13T04:46:42.314Z,17.81
2018-08-13T04:47:42.241Z,17.70
2018-08-13T04:48:42.167Z,17.77
2018-08-13T04:49:42.095Z,17.71
2018-08-13T04:50:42.019Z,17.81
2018-08-13T04:51:41.947Z,17.85
2018-08-13T04:52:41.880Z,17.81
2018-08-13T04:53:41.805Z,17.73
2018-08-13T04:54:41.726Z,17.81
2018-08-13T04:55:41.653Z,17.76
2018-08-13T04:56:41.581Z,17.77
2018-08-13T04:57:41.510Z,17.98
2018-08-13T04:58:41.433Z,18.09
2018-08-13T04:59:41.359Z,18.13
2018-08-13T05:00:41.288Z,18.13
2018-08-13T05:01:41.215Z,17.96
2018-08-13T05:02:41.139Z,17.88
2018-08-13T05:03:41.068Z,17.84
2018-08-13T05:04:40.995Z,17.95
2018-08-13T05:05:40.920Z,17.94
2018-08-13T05:06:40.847Z,18.02
2018-08-13T05:07:40.774Z,18.06
2018-08-13T05:08:40.701Z,18.10
2018-08-13T05:09:40.630Z,18.18
2018-08-13T05:10:40.555Z,18.21
2018-08-13T05:11:40.480Z,18.18
2018-08-13T05:12:40.409Z,18.14
2018-08-13T05:13:40.336Z,18.16
2018-08-13T05:14:40.261Z,18.19
2018-08-13T05:15:40.189Z,18.19
2018-08-13T05:16:40.115Z,18.21
2018-08-13T05:17:40.044Z,18.28
2018-08-13T05:18:39.970Z,18.37
2018-08-13T05:19:39.897Z,18.37
2018-08-13T05:20:39.824Z,18.46
2018-08-13T05:21:39.751Z,18.42
2018-08-13T05:22:39.680Z,18.43
2018-08-13T05:23:39.605Z,18.52
2018-08-13T05:24:39.533Z,18.53
2018-08-13T05:25:39.460Z,18.57
2018-08-13T05:26:39.389Z,18.69
2018-08-13T05:27:39.313Z,18.77
2018-08-13T05:28:39.240Z,18.82
2018-08-13T05:29:39.170Z,18.82
2018-08-13T05:30:39.095Z,18.68
2018-08-13T05:31:39.023Z,18.86
2018-08-13T05:32:38.949Z,18.94
2018-08-13T05:33:38.879Z,18.92
2018-08-13T05:34:38.805Z,18.83
2018-08-13T05:35:38.732Z,18.87
2018-08-13T05:36:38.659Z,18.94
2018-08-13T05:37:38.588Z,18.82
2018-08-13T05:38:38.513Z,18.98
2018-08-13T05:39:38.443Z,19.01
2018-08-13T05:40:38.370Z,19.09
2018-08-13T05:41:38.296Z,19.18
2018-08-13T05:42:38.224Z,19.20
2018-08-13T05:43:38.151Z,19.32
2018-08-13T05:44:38.079Z,19.48
2018-08-13T05:45:38.008Z,19.54
2018-08-13T05:46:37.934Z,19.61
2018-08-13T05:47:37.861Z,19.75
2018-08-13T05:48:37.789Z,19.80
2018-08-13T05:49:37.718Z,19.79
2018-08-13T05:50:37.645Z,19.88
2018-08-13T05:51:37.572Z,19.97
2018-08-13T05:52:37.500Z,19.98
2018-08-13T05:53:37.430Z,20.08
2018-08-13T05:54:37.356Z,20.08
2018-08-13T05:55:37.285Z,20.12
2018-08-13T05:56:37.213Z,20.24
2018-08-13T05:57:37.140Z,20.28
2018-08-13T05:58:37.070Z,20.23
2018-08-13T05:59:36.998Z,20.19
2018-08-13T06:00:36.928Z,20.27
2018-08-13T06:01:36.859Z,20.26
2018-08-13T06:02:36.785Z,20.27
2018-08-13T06:03:36.713Z,20.40
2018-08-13T06:04:36.646Z,20.42
2018-08-13T06:05:36.569Z,20.42
2018-08-13T06:06:36.495Z,20.40
2018-08-13T06:07:36.423Z,20.40
2018-08-13T06:08:36.352Z,20.46
2018-08-13T06:09:36.281Z,20.53
2018-08-13T06:10:36.208Z,20.76
2018-08-13T06:11:36.257Z,20.91
2018-08-13T06:12:36.066Z,21.11
2018-08-13T06:13:35.995Z,21.09
2018-08-13T06:14:35.923Z,21.04
2018-08-13T06:15:35.850Z,20.57
2018-08-13T06:16:35.779Z,20.27
2018-08-13T06:17:35.715Z,20.19
2018-08-13T06:18:35.638Z,20.09
2018-08-13T06:19:35.563Z,19.91
2018-08-13T06:20:35.493Z,19.78
2018-08-13T06:21:35.420Z,19.65
2018-08-13T06:22:35.347Z,19.69
2018-08-13T06:23:35.277Z,19.45
2018-08-13T06:24:35.206Z,19.39
2018-08-13T06:25:35.132Z,19.20
2018-08-13T06:26:35.074Z,19.14
2018-08-13T06:27:34.988Z,19.02
2018-08-13T06:28:34.918Z,19.06
2018-08-13T06:29:34.846Z,19.06
2018-08-13T06:30:34.773Z,19.02
2018-08-13T06:31:34.700Z,19.11
2018-08-13T06:32:34.628Z,19.20
2018-08-13T06:33:34.557Z,19.23
2018-08-13T06:34:34.511Z,19.33
2018-08-13T06:35:34.412Z,19.42
2018-08-13T06:36:34.343Z,19.42
2018-08-13T06:37:34.276Z,19.48
2018-08-13T06:38:34.194Z,19.58
2018-08-13T06:39:34.123Z,19.64
2018-08-13T06:40:34.052Z,19.78
2018-08-13T06:41:33.979Z,19.73
2018-08-13T06:42:33.907Z,19.87
2018-08-13T06:43:33.838Z,19.95
2018-08-13T06:44:33.764Z,20.15
2018-08-13T06:45:33.692Z,20.33
2018-08-13T06:46:33.621Z,20.30
2018-08-13T06:47:33.549Z,20.42
2018-08-13T06:48:33.480Z,20.27
2018-08-13T06:49:33.404Z,20.27
2018-08-13T06:50:33.333Z,20.34
2018-08-13T06:51:33.261Z,20.23
2018-08-13T06:52:33.191Z,20.28
2018-08-13T06:53:33.121Z,20.43
2018-08-13T06:54:33.046Z,20.75
2018-08-13T06:55:32.976Z,20.87
2018-08-13T06:56:32.903Z,20.91
2018-08-13T06:57:32.833Z,21.06
2018-08-13T06:58:32.760Z,21.09
2018-08-13T06:59:32.688Z,20.93
2018-08-13T07:00:32.616Z,20.98
2018-08-13T07:01:32.546Z,21.21
2018-08-13T07:02:32.473Z,21.23
2018-08-13T07:03:32.401Z,21.20
2018-08-13T07:04:32.330Z,21.21
2018-08-13T07:05:32.261Z,21.44
2018-08-13T07:06:32.187Z,21.46
2018-08-13T07:07:32.116Z,21.49
2018-08-13T07:08:32.044Z,21.57
2018-08-13T07:09:31.974Z,21.56
2018-08-13T07:10:31.901Z,21.45
2018-08-13T07:11:31.829Z,21.29
2018-08-13T07:12:31.757Z,21.17
2018-08-13T07:13:31.687Z,21.14
2018-08-13T07:14:31.613Z,20.96
2018-08-13T07:15:31.542Z,20.83
2018-08-13T07:16:31.471Z,20.82
2018-08-13T07:17:31.399Z,20.76
2018-08-13T07:18:31.327Z,20.76
2018-08-13T07:19:31.257Z,20.66
2018-08-13T07:20:31.185Z,20.71
2018-08-13T07:21:31.116Z,20.65
2018-08-13T07:22:31.093Z,20.74
2018-08-13T07:23:30.971Z,20.75
2018-08-13T07:24:30.899Z,20.68
2018-08-13T07:25:30.828Z,20.65
2018-08-13T07:26:30.756Z,20.53
2018-08-13T07:27:30.683Z,20.43
2018-08-13T07:28:30.612Z,20.37
2018-08-13T07:29:30.541Z,20.18
2018-08-13T07:30:30.468Z,20.23
2018-08-13T07:31:30.397Z,20.19
2018-08-13T07:32:30.326Z,20.18
2018-08-13T07:33:30.294Z,20.18
2018-08-13T07:34:30.181Z,20.18
2018-08-13T07:35:30.110Z,20.09
2018-08-13T07:36:30.038Z,20.12
2018-08-13T07:37:29.967Z,20.00
2018-08-13T07:38:29.894Z,20.03
2018-08-13T07:39:29.884Z,20.06
2018-08-13T07:40:29.752Z,20.12
2018-08-13T07:41:29.681Z,20.15
2018-08-13T07:42:29.607Z,20.19
2018-08-13T07:43:29.537Z,20.26
2018-08-13T07:44:29.463Z,20.27
2018-08-13T07:45:29.398Z,20.38
2018-08-13T07:46:29.342Z,20.46
2018-08-13T07:47:29.250Z,20.40
2018-08-13T07:48:29.179Z,20.47
2018-08-13T07:49:29.106Z,20.54
2018-08-13T07:50:29.033Z,20.62
2018-08-13T07:51:28.965Z,20.54
2018-08-13T07:52:28.892Z,20.53
2018-08-13T07:53:28.822Z,20.66
2018-08-13T07:54:28.747Z,20.64
2018-08-13T07:55:28.676Z,20.72
2018-08-13T07:56:28.605Z,20.66
2018-08-13T07:57:28.534Z,20.71
2018-08-13T07:58:28.461Z,20.76
2018-08-13T07:59:28.393Z,20.79
2018-08-13T08:00:28.321Z,20.79
2018-08-13T08:01:28.253Z,20.90
2018-08-13T08:02:28.175Z,20.91
2018-08-13T08:03:28.104Z,20.96
2018-08-13T08:04:28.032Z,20.90
2018-08-13T08:05:27.963Z,20.93
2018-08-13T08:06:27.888Z,20.90
2018-08-13T08:07:27.819Z,21.06
2018-08-13T08:08:27.748Z,21.17
2018-08-13T08:09:27.676Z,21.30
2018-08-13T08:10:27.604Z,21.26
2018-08-13T08:11:27.532Z,21.35
2018-08-13T08:12:27.461Z,21.45
2018-08-13T08:13:27.391Z,21.46
2018-08-13T08:14:27.319Z,21.46
2018-08-13T08:15:27.247Z,21.44
2018-08-13T08:16:27.176Z,21.49
2018-08-13T08:17:27.109Z,21.61
2018-08-13T08:18:27.034Z,21.48
2018-08-13T08:19:26.969Z,21.54
2018-08-13T08:20:26.894Z,21.60
2018-08-13T08:21:26.884Z,21.49
2018-08-13T08:22:26.749Z,21.48
2018-08-13T08:23:26.677Z,21.44
2018-08-13T08:24:26.609Z,21.45
2018-08-13T08:25:26.537Z,21.51
2018-08-13T08:26:26.466Z,21.56
2018-08-13T08:27:26.395Z,21.54
2018-08-13T08:28:26.328Z,21.41
2018-08-13T08:29:26.285Z,21.41
2018-08-13T08:30:26.181Z,21.49
2018-08-13T08:31:26.111Z,21.29
2018-08-13T08:32:26.040Z,21.29
2018-08-13T08:33:25.971Z,21.09
2018-08-13T08:34:25.896Z,21.19
2018-08-13T08:35:25.826Z,21.17
2018-08-13T08:36:25.754Z,21.08
2018-08-13T08:37:25.684Z,21.08
2018-08-13T08:38:25.613Z,21.05
2018-08-13T08:39:25.542Z,21.05
2018-08-13T08:40:25.515Z,21.08
2018-08-13T08:41:25.400Z,21.19
2018-08-13T08:42:25.331Z,21.16
2018-08-13T08:43:25.257Z,21.17
2018-08-13T08:44:25.185Z,21.14
2018-08-13T08:45:25.116Z,21.16
2018-08-13T08:46:25.043Z,21.17
2018-08-13T08:47:24.974Z,21.19
2018-08-13T08:48:24.903Z,21.06
2018-08-13T08:49:24.832Z,21.06
2018-08-13T08:50:24.762Z,20.98
2018-08-13T08:51:24.689Z,20.93
2018-08-13T08:52:24.619Z,20.86
2018-08-13T08:53:24.549Z,20.79
2018-08-13T08:54:24.475Z,20.80
2018-08-13T08:55:24.408Z,20.82
2018-08-13T08:56:24.333Z,20.80
2018-08-13T08:57:24.262Z,20.79
2018-08-13T08:58:24.191Z,20.64
2018-08-13T08:59:24.120Z,20.66
2018-08-13T09:00:24.050Z,20.57
2018-08-13T09:01:23.979Z,20.53
2018-08-13T09:02:23.906Z,20.51
2018-08-13T09:03:23.834Z,20.46
2018-08-13T09:04:23.764Z,20.42
2018-08-13T09:05:23.692Z,20.38
2018-08-13T09:06:23.622Z,20.40
2018-08-13T09:07:23.550Z,20.43
2018-08-13T09:08:23.479Z,20.40
2018-08-13T09:09:23.408Z,20.43
2018-08-13T09:10:23.339Z,20.43
2018-08-13T09:11:23.264Z,20.42
2018-08-13T09:12:23.194Z,20.38
2018-08-13T09:13:23.122Z,20.42
2018-08-13T09:14:23.052Z,20.42
2018-08-13T09:15:22.980Z,20.40
2018-08-13T09:16:22.909Z,20.42
2018-08-13T09:17:22.839Z,20.37
2018-08-13T09:18:22.766Z,20.38
2018-08-13T09:19:22.694Z,20.40
2018-08-13T09:20:22.623Z,20.42
2018-08-13T09:21:22.553Z,20.40
2018-08-13T09:22:22.482Z,20.47
2018-08-13T09:23:22.409Z,20.40
2018-08-13T09:24:22.339Z,20.38
2018-08-13T09:25:22.268Z,20.38
2018-08-13T09:26:22.195Z,20.28
2018-08-13T09:27:22.124Z,20.34
2018-08-13T09:28:22.052Z,20.28
2018-08-13T09:29:21.982Z,20.31
2018-08-13T09:30:21.910Z,20.30
2018-08-13T09:31:21.839Z,20.38
2018-08-13T09:32:21.767Z,20.37
2018-08-13T09:33:21.696Z,20.40
2018-08-13T09:34:21.625Z,20.38
2018-08-13T09:35:21.552Z,20.43
2018-08-13T09:36:21.486Z,20.30
2018-08-13T09:37:21.411Z,20.34
2018-08-13T09:38:21.339Z,20.38
2018-08-13T09:39:21.267Z,20.28
2018-08-13T09:40:21.197Z,20.42
2018-08-13T09:41:21.125Z,20.35
2018-08-13T09:42:21.054Z,20.40
2018-08-13T09:43:20.982Z,20.43
2018-08-13T09:44:20.912Z,20.49
2018-08-13T09:45:20.840Z,20.47
2018-08-13T09:46:20.769Z,20.43
2018-08-13T09:47:20.697Z,20.37
2018-08-13T09:48:20.629Z,20.46
2018-08-13T09:49:20.554Z,20.42
2018-08-13T09:50:20.482Z,20.37
2018-08-13T09:51:20.410Z,20.50
2018-08-13T09:52:20.340Z,20.40
2018-08-13T09:53:20.269Z,20.46
2018-08-13T09:54:20.196Z,20.46
2018-08-13T09:55:20.125Z,20.40
2018-08-13T09:56:20.056Z,20.40
2018-08-13T09:57:19.984Z,20.49
2018-08-13T09:58:19.912Z,20.40
2018-08-13T09:59:19.840Z,20.57
2018-08-13T10:00:19.817Z,20.56
2018-08-13T10:01:19.698Z,20.53
2018-08-13T10:02:19.626Z,20.51
2018-08-13T10:03:19.555Z,20.51
2018-08-13T10:04:19.484Z,20.46
2018-08-13T10:05:19.416Z,20.49
2018-08-13T10:06:19.341Z,20.47
2018-08-13T10:07:19.270Z,20.51
2018-08-13T10:08:19.199Z,20.42
2018-08-13T10:09:19.152Z,20.43
2018-08-13T10:10:19.055Z,20.49
2018-08-13T10:11:18.986Z,20.42
2018-08-13T10:12:18.917Z,20.49
2018-08-13T10:13:18.842Z,20.47
2018-08-13T10:14:18.770Z,20.47
2018-08-13T10:15:18.698Z,20.49
2018-08-13T10:16:18.628Z,20.30
2018-08-13T10:17:18.556Z,20.30
2018-08-13T10:18:18.485Z,20.30
2018-08-13T10:19:18.416Z,20.31
2018-08-13T10:20:18.342Z,20.26
2018-08-13T10:21:18.272Z,20.40
2018-08-13T10:22:18.200Z,20.42
2018-08-13T10:23:18.129Z,20.56
2018-08-13T10:24:18.058Z,20.43
2018-08-13T10:25:17.987Z,20.54
2018-08-13T10:26:17.915Z,20.59
2018-08-13T10:27:17.843Z,20.56
2018-08-13T10:28:17.773Z,20.61
2018-08-13T10:29:17.700Z,20.65
2018-08-13T10:30:17.629Z,20.65
2018-08-13T10:31:17.558Z,20.61
2018-08-13T10:32:17.488Z,20.71
2018-08-13T10:33:17.417Z,20.69
2018-08-13T10:34:17.344Z,20.54
2018-08-13T10:35:17.274Z,20.56
2018-08-13T10:36:17.205Z,20.64
2018-08-13T10:37:17.134Z,20.54
2018-08-13T10:38:17.061Z,20.54
2018-08-13T10:39:16.993Z,20.57
2018-08-13T10:40:16.919Z,20.64
2018-08-13T10:41:16.848Z,20.65
2018-08-13T10:42:16.776Z,20.62
2018-08-13T10:43:16.705Z,20.61
2018-08-13T10:44:16.633Z,20.62
2018-08-13T10:45:16.563Z,20.66
2018-08-13T10:46:16.496Z,20.59
2018-08-13T10:47:16.420Z,20.64
2018-08-13T10:48:16.350Z,20.68
2018-08-13T10:49:16.278Z,20.83
2018-08-13T10:50:16.206Z,20.74
2018-08-13T10:51:16.137Z,20.83
2018-08-13T10:52:16.065Z,20.68
2018-08-13T10:53:15.994Z,20.72
2018-08-13T10:54:15.922Z,20.74
2018-08-13T10:55:15.850Z,20.82
2018-08-13T10:56:15.875Z,20.74
2018-08-13T10:57:15.713Z,20.72
2018-08-13T10:58:15.638Z,20.66
2018-08-13T10:59:15.567Z,20.61
2018-08-13T11:00:15.496Z,20.54
2018-08-13T11:01:15.468Z,20.57
2018-08-13T11:02:15.354Z,20.59
2018-08-13T11:03:15.281Z,20.42
2018-08-13T11:04:15.216Z,20.37
2018-08-13T11:05:15.141Z,20.43
2018-08-13T11:06:15.069Z,20.38
2018-08-13T11:07:14.996Z,20.37
2018-08-13T11:08:14.926Z,20.30
2018-08-13T11:09:14.856Z,20.50
2018-08-13T11:10:14.801Z,20.43
2018-08-13T11:11:14.712Z,20.47
2018-08-13T11:12:14.640Z,20.57
2018-08-13T11:13:14.569Z,20.61
2018-08-13T11:14:14.498Z,20.64
2018-08-13T11:15:14.427Z,20.54
2018-08-13T11:16:14.356Z,20.65
2018-08-13T11:17:14.285Z,20.72
2018-08-13T11:18:14.216Z,20.75
2018-08-13T11:19:14.141Z,20.79
2018-08-13T11:20:14.069Z,20.93
2018-08-13T11:21:14.001Z,20.98
2018-08-13T11:22:13.928Z,20.91
2018-08-13T11:23:13.857Z,20.96
2018-08-13T11:24:13.787Z,20.86
2018-08-13T11:25:13.759Z,20.96
2018-08-13T11:26:13.648Z,20.87
2018-08-13T11:27:13.574Z,20.84
2018-08-13T11:28:13.502Z,20.90
2018-08-13T11:29:13.432Z,20.94
2018-08-13T11:30:13.361Z,21.09
2018-08-13T11:31:13.304Z,21.19
2018-08-13T11:32:13.219Z,21.26
2018-08-13T11:33:13.148Z,21.16
2018-08-13T11:34:13.077Z,21.16
2018-08-13T11:35:13.006Z,21.20
2018-08-13T11:36:12.936Z,21.11
2018-08-13T11:37:12.865Z,21.02
2018-08-13T11:38:12.793Z,20.90
2018-08-13T11:39:12.723Z,20.90
2018-08-13T11:40:12.651Z,20.82
2018-08-13T11:41:12.585Z,20.83
2018-08-13T11:42:12.509Z,20.79
2018-08-13T11:43:12.445Z,20.83
2018-08-13T11:44:12.369Z,20.90
2018-08-13T11:45:12.298Z,20.87
2018-08-13T11:46:12.270Z,20.87
2018-08-13T11:47:12.158Z,20.90
2018-08-13T11:48:12.084Z,20.91
2018-08-13T11:49:12.029Z,20.82
2018-08-13T11:50:11.942Z,20.76
2018-08-13T11:51:11.873Z,20.86
2018-08-13T11:52:11.801Z,20.87
2018-08-13T11:53:11.730Z,20.84
2018-08-13T11:54:11.657Z,20.86
2018-08-13T11:55:11.589Z,20.86
2018-08-13T11:56:11.520Z,20.89
2018-08-13T11:57:11.447Z,20.90
2018-08-13T11:58:11.375Z,20.83
2018-08-13T11:59:11.305Z,20.82
2018-08-13T12:00:11.234Z,20.87
2018-08-13T12:01:11.162Z,20.98
2018-08-13T12:02:11.211Z,20.90
2018-08-13T12:03:11.022Z,20.96
2018-08-13T12:04:10.949Z,21.08
2018-08-13T12:05:10.878Z,20.99
2018-08-13T12:06:10.806Z,21.19
2018-08-13T12:07:10.735Z,21.26
2018-08-13T12:08:10.666Z,21.30
2018-08-13T12:09:10.595Z,21.33
2018-08-13T12:10:10.523Z,21.38
2018-08-13T12:11:10.453Z,21.41
2018-08-13T12:12:10.382Z,21.48
2018-08-13T12:13:10.311Z,21.51
2018-08-13T12:14:10.302Z,21.27
2018-08-13T12:15:10.170Z,21.27
2018-08-13T12:16:10.100Z,21.19
2018-08-13T12:17:10.033Z,21.17
2018-08-13T12:18:09.958Z,21.16
2018-08-13T12:19:09.887Z,21.14
2018-08-13T12:20:09.817Z,21.08
2018-08-13T12:21:09.747Z,21.06
2018-08-13T12:22:09.675Z,21.12
2018-08-13T12:23:09.605Z,21.09
2018-08-13T12:24:09.533Z,21.06
2018-08-13T12:25:09.463Z,21.01
2018-08-13T12:26:09.393Z,21.11
2018-08-13T12:27:09.322Z,20.94
2018-08-13T12:28:09.251Z,21.04
2018-08-13T12:29:09.181Z,21.09
2018-08-13T12:30:09.110Z,21.30
2018-08-13T12:31:09.038Z,21.38
2018-08-13T12:32:08.968Z,21.41
2018-08-13T12:33:08.897Z,21.44
2018-08-13T12:34:08.826Z,21.36
2018-08-13T12:35:08.755Z,21.48
2018-08-13T12:36:08.684Z,21.53
2018-08-13T12:37:08.618Z,21.67
2018-08-13T12:38:08.543Z,21.76
2018-08-13T12:39:08.472Z,21.79
2018-08-13T12:40:08.401Z,21.89
2018-08-13T12:41:08.352Z,21.95
2018-08-13T12:42:08.261Z,22.16
2018-08-13T12:43:08.190Z,22.28
2018-08-13T12:44:08.120Z,22.26
2018-08-13T12:45:08.050Z,22.30
2018-08-13T12:46:07.978Z,22.31
2018-08-13T12:47:07.909Z,22.31
2018-08-13T12:48:07.841Z,22.28
2018-08-13T12:49:07.769Z,22.34
2018-08-13T12:50:07.700Z,22.28
2018-08-13T12:51:07.659Z,22.15